Time;durP1;ratioP1;P1;durP2;ratioP2;P2;SDS_P1;SDS_P2;PMS_P1;PMS_P2;Temp;Humidity;BMP_temperature;BMP_pressure;BME280_temperature;BME280_humidity;BME280_pressure;Samples;Min_cycle;Max_cycle;Signal;HPM_P1;HPM_P2
2022/06/01 00:01:18;;;;;;;11.90;6.90;;;10.30;99.90;;;;;;4993165;28;20112;-85
2022/06/01 00:03:48;;;;;;;10.52;6.28;;;10.30;99.90;;;;;;4973462;28;20038;-85
2022/06/01 00:06:14;;;;;;;11.02;6.40;;;10.30;99.90;;;;;;5007308;28;20483;-85
2022/06/01 00:08:41;;;;;;;10.73;6.53;;;10.40;99.90;;;;;;4986128;28;20080;-86
2022/06/01 00:11:13;;;;;;;12.57;6.40;;;10.90;99.90;;;;;;5003483;28;20057;-85
2022/06/01 00:13:42;;;;;;;11.10;6.60;;;10.40;99.90;;;;;;4990135;28;20062;-85
2022/06/01 00:16:11;;;;;;;11.02;6.80;;;10.40;99.90;;;;;;5005430;28;20041;-85
2022/06/01 00:18:37;;;;;;;12.20;7.00;;;10.30;99.90;;;;;;4973782;28;20126;-84
2022/06/01 00:21:07;;;;;;;11.20;7.03;;;10.40;99.90;;;;;;4989056;28;20061;-85
2022/06/01 00:23:33;;;;;;;13.93;6.75;;;10.30;99.90;;;;;;4974184;28;20071;-86
2022/06/01 00:25:59;;;;;;;13.30;7.38;;;10.40;99.90;;;;;;4969704;28;20046;-85
2022/06/01 00:28:26;;;;;;;11.63;7.03;;;10.50;99.90;;;;;;4989535;28;20485;-85
2022/06/01 00:30:52;;;;;;;13.35;7.63;;;;;;;;;;4984518;28;20050;-85
2022/06/01 00:33:18;;;;;;;12.07;7.55;;;;;;;;;;4988889;28;20053;-85
2022/06/01 00:35:44;;;;;;;14.63;7.43;;;;;;;;;;4971313;28;20353;-84
2022/06/01 00:38:13;;;;;;;13.77;7.95;;;10.60;99.90;;;;;;4972696;28;20073;-85
2022/06/01 00:40:39;;;;;;;13.13;7.97;;;;;;;;;;4989761;28;20520;-85
2022/06/01 00:43:44;;;;;;;14.13;8.95;;;10.60;99.90;;;;;;4971313;28;20034;-84
2022/06/01 00:46:11;;;;;;;14.18;8.07;;;10.70;99.90;;;;;;4995734;28;20127;-85
2022/06/01 00:48:43;;;;;;;12.30;8.75;;;10.60;99.90;;;;;;4988139;28;20572;-86
2022/06/01 00:51:12;;;;;;;15.45;8.35;;;9.50;99.90;;;;;;4987923;28;20046;-85
2022/06/01 00:53:43;;;;;;;13.85;8.15;;;10.70;99.90;;;;;;4972524;28;20293;-85
2022/06/01 00:56:14;;;;;;;13.73;8.95;;;10.70;99.90;;;;;;4986924;28;20108;-86
2022/06/01 00:58:49;;;;;;;14.00;9.30;;;10.80;99.90;;;;;;4972530;28;20038;-85
2022/06/01 01:01:20;;;;;;;15.02;9.02;;;10.70;99.90;;;;;;4989406;28;20658;-84
2022/06/01 01:03:56;;;;;;;13.25;8.30;;;10.80;99.90;;;;;;4972770;28;20038;-87
2022/06/01 01:06:24;;;;;;;13.18;8.65;;;10.80;99.90;;;;;;4972486;28;20444;-85
2022/06/01 01:08:51;;;;;;;12.93;8.50;;;10.70;99.90;;;;;;4988942;28;20155;-84
2022/06/01 01:11:25;;;;;;;15.98;9.23;;;10.80;99.90;;;;;;4985500;28;20049;-85
2022/06/01 01:13:55;;;;;;;13.88;9.50;;;10.80;99.90;;;;;;5003239;28;20104;-85
2022/06/01 01:16:22;;;;;;;13.77;9.38;;;10.80;99.90;;;;;;4971486;28;20045;-85
2022/06/01 01:18:51;;;;;;;13.52;8.93;;;10.80;99.90;;;;;;4968672;28;20099;-86
2022/06/01 01:21:35;;;;;;;13.07;8.88;;;10.90;99.90;;;;;;4972932;28;20244;-85
2022/06/01 01:24:29;;;;;;;13.43;9.15;;;10.80;99.90;;;;;;4973063;28;20091;-84
2022/06/01 01:26:56;;;;;;;13.18;8.68;;;8.80;99.90;;;;;;4987372;28;20045;-85
2022/06/01 01:29:42;;;;;;;13.63;8.48;;;10.80;99.90;;;;;;4986824;28;20104;-83
2022/06/01 01:32:14;;;;;;;13.93;9.13;;;10.80;99.90;;;;;;4972272;28;20065;-85
2022/06/01 01:34:43;;;;;;;13.35;9.32;;;10.90;99.90;;;;;;4972175;28;20088;-84
2022/06/01 01:37:18;;;;;;;14.57;10.20;;;10.80;99.90;;;;;;4989950;28;20448;-85
2022/06/01 01:39:44;;;;;;;14.10;10.32;;;10.90;99.90;;;;;;5002308;28;20041;-86
2022/06/01 01:42:10;;;;;;;14.65;10.07;;;10.90;99.90;;;;;;4988643;28;20038;-85
2022/06/01 01:44:49;;;;;;;16.58;10.90;;;10.90;99.90;;;;;;4970616;28;20069;-85
2022/06/01 01:47:15;;;;;;;14.13;9.80;;;10.90;99.90;;;;;;4986662;28;20520;-85
2022/06/01 01:49:42;;;;;;;17.67;9.27;;;10.90;99.90;;;;;;4970470;28;20038;-86
2022/06/01 01:52:12;;;;;;;13.63;9.80;;;10.90;99.90;;;;;;4989542;28;20034;-85
2022/06/01 01:55:00;;;;;;;13.68;9.40;;;10.90;99.90;;;;;;4987278;28;20046;-85
2022/06/01 01:57:44;;;;;;;15.68;10.30;;;;;;;;;;4972657;28;20041;-86
2022/06/01 02:00:34;;;;;;;13.52;9.63;;;10.90;99.90;;;;;;4987963;28;20045;-86
2022/06/01 02:03:15;;;;;;;13.35;9.77;;;10.80;99.90;;;;;;4983633;28;20089;-84
2022/06/01 02:06:08;;;;;;;13.90;9.98;;;10.90;99.90;;;;;;4987545;28;20093;-84
2022/06/01 02:08:54;;;;;;;13.45;9.00;;;10.80;99.90;;;;;;4972586;28;20049;-84
2022/06/01 02:14:45;;;;;;;14.27;9.73;;;10.80;99.90;;;;;;4986791;28;20038;-86
2022/06/01 02:17:49;;;;;;;15.27;10.32;;;10.80;99.90;;;;;;4952772;28;20038;-86
2022/06/01 02:20:40;;;;;;;15.95;10.23;;;10.90;99.90;;;;;;4942486;28;20097;-86
2022/06/01 02:23:13;;;;;;;15.82;11.00;;;10.90;99.90;;;;;;4966518;28;20124;-85
2022/06/01 02:25:40;;;;;;;13.82;9.77;;;10.90;99.90;;;;;;4953269;28;20054;-84
2022/06/01 02:28:09;;;;;;;14.23;10.40;;;10.90;99.90;;;;;;4966307;28;20052;-84
2022/06/01 02:30:39;;;;;;;14.82;10.85;;;11.60;99.90;;;;;;4951653;28;20074;-86
2022/06/01 02:33:12;;;;;;;14.98;11.05;;;10.90;99.90;;;;;;4965687;28;20125;-86
2022/06/01 02:35:45;;;;;;;15.27;11.45;;;10.90;99.90;;;;;;4967713;28;20050;-86
2022/06/01 02:38:16;;;;;;;16.13;11.48;;;10.90;99.90;;;;;;4952293;28;20096;-84
2022/06/01 02:40:42;;;;;;;17.05;11.70;;;10.90;99.90;;;;;;4966781;28;20040;-86
2022/06/01 02:43:08;;;;;;;16.92;11.95;;;10.90;99.90;;;;;;4967245;28;20493;-85
2022/06/01 02:45:37;;;;;;;18.40;12.02;;;10.90;99.90;;;;;;4955255;28;20046;-86
2022/06/01 02:48:11;;;;;;;16.98;11.88;;;10.90;99.90;;;;;;4949942;28;20050;-85
2022/06/01 02:50:40;;;;;;;15.77;11.27;;;11.00;99.90;;;;;;4967313;28;20485;-86
2022/06/01 02:53:11;;;;;;;17.40;11.73;;;10.90;99.90;;;;;;4966737;28;20042;-85
2022/06/01 02:55:37;;;;;;;16.85;11.27;;;10.90;99.90;;;;;;4983343;28;20408;-87
2022/06/01 02:58:06;;;;;;;17.60;11.43;;;10.90;99.90;;;;;;4966569;28;20513;-86
2022/06/01 03:00:37;;;;;;;17.58;11.60;;;10.80;99.90;;;;;;4967564;28;20042;-85
2022/06/01 03:03:05;;;;;;;13.98;10.48;;;10.90;99.90;;;;;;4947491;28;20096;-85
2022/06/01 03:05:34;;;;;;;14.35;10.07;;;10.80;99.90;;;;;;4950440;28;20046;-86
2022/06/01 03:08:06;;;;;;;15.23;10.77;;;10.80;99.90;;;;;;4967739;28;20030;-85
2022/06/01 03:10:39;;;;;;;14.43;10.80;;;10.80;99.90;;;;;;4980292;28;20042;-85
2022/06/01 03:13:08;;;;;;;15.18;10.98;;;10.70;99.90;;;;;;4961016;28;20116;-84
2022/06/01 03:15:34;;;;;;;15.20;10.57;;;;;;;;;;4998968;28;20359;-85
2022/06/01 03:18:02;;;;;;;15.82;11.13;;;10.70;99.90;;;;;;4965597;28;20069;-85
2022/06/01 03:20:29;;;;;;;16.52;11.05;;;10.60;99.90;;;;;;4963577;28;20447;-85
2022/06/01 03:22:59;;;;;;;16.33;11.40;;;10.60;99.90;;;;;;4965449;28;20042;-88
2022/06/01 03:25:25;;;;;;;16.02;11.25;;;10.70;99.90;;;;;;4981511;28;20038;-85
2022/06/01 03:28:05;;;;;;;15.55;11.25;;;10.70;99.90;;;;;;4967413;28;20586;-85
2022/06/01 03:30:40;;;;;;;16.58;11.35;;;10.70;99.90;;;;;;4981858;28;20046;-85
2022/06/01 03:33:05;;;;;;;15.13;11.23;;;10.60;99.90;;;;;;4980462;28;20093;-85
2022/06/01 03:35:36;;;;;;;15.60;11.63;;;10.70;99.90;;;;;;4980566;28;20074;-84
2022/06/01 03:38:03;;;;;;;16.08;11.23;;;10.70;99.90;;;;;;4965133;28;20080;-85
2022/06/01 03:40:31;;;;;;;14.73;11.07;;;10.70;99.90;;;;;;4965134;28;20177;-84
2022/06/01 03:42:58;;;;;;;15.68;11.20;;;10.60;99.90;;;;;;4963959;28;20432;-85
2022/06/01 03:48:09;;;;;;;17.00;12.13;;;10.70;99.90;;;;;;4981822;28;20042;-86
2022/06/01 03:50:35;;;;;;;17.77;11.90;;;10.70;99.90;;;;;;4987127;28;20036;-86
2022/06/01 03:53:07;;;;;;;15.13;11.48;;;;;;;;;;4984972;28;20484;-88
2022/06/01 03:55:39;;;;;;;16.63;12.80;;;10.80;99.90;;;;;;4985142;28;20066;-86
2022/06/01 03:58:08;;;;;;;15.35;11.43;;;10.70;99.90;;;;;;4970532;28;20504;-84
2022/06/01 04:00:34;;;;;;;16.65;12.00;;;10.80;99.90;;;;;;4972446;28;20066;-86
2022/06/01 04:02:59;;;;;;;16.23;12.75;;;10.80;99.90;;;;;;4985064;28;20081;-85
2022/06/01 04:05:26;;;;;;;16.95;12.23;;;;;;;;;;4986870;28;20092;-86
2022/06/01 04:07:55;;;;;;;19.55;12.85;;;10.80;99.90;;;;;;4968319;28;20133;-86
2022/06/01 04:10:24;;;;;;;16.10;12.40;;;10.80;99.90;;;;;;4968384;28;20117;-85
2022/06/01 04:12:52;;;;;;;16.90;12.38;;;10.90;99.90;;;;;;4987047;28;20723;-85
2022/06/01 04:15:18;;;;;;;17.90;13.20;;;10.90;99.90;;;;;;4974873;28;20423;-85
2022/06/01 04:17:44;;;;;;;16.23;12.52;;;11.10;99.90;;;;;;4973870;28;20049;-85
2022/06/01 04:20:13;;;;;;;16.35;12.52;;;11.00;99.90;;;;;;4972944;28;20050;-85
2022/06/01 04:22:43;;;;;;;19.83;12.85;;;;;;;;;;4955246;28;20561;-87
2022/06/01 04:25:15;;;;;;;17.48;12.38;;;11.00;99.90;;;;;;4985725;28;20065;-86
2022/06/01 04:27:44;;;;;;;18.55;13.40;;;11.10;99.90;;;;;;4986847;28;20108;-89
2022/06/01 04:30:14;;;;;;;14.93;12.15;;;10.90;99.90;;;;;;4971470;28;20050;-85
2022/06/01 04:32:39;;;;;;;18.42;13.48;;;11.10;99.90;;;;;;4989702;28;20053;-85
2022/06/01 04:35:11;;;;;;;17.23;13.15;;;11.10;99.90;;;;;;5003730;28;20041;-85
2022/06/01 04:37:40;;;;;;;16.70;13.13;;;;;;;;;;4989522;28;20041;-86
2022/06/01 04:40:09;;;;;;;18.33;13.40;;;11.20;99.90;;;;;;4971552;28;20042;-86
2022/06/01 04:42:39;;;;;;;18.55;13.50;;;;;;;;;;4972125;28;20046;-86
2022/06/01 04:45:05;;;;;;;18.15;14.10;;;11.30;99.90;;;;;;4986092;28;20041;-85
2022/06/01 04:47:31;;;;;;;17.75;13.40;;;11.30;99.90;;;;;;4978240;28;20038;-86
2022/06/01 04:50:00;;;;;;;16.77;13.13;;;11.30;99.90;;;;;;4973574;28;20449;-85
2022/06/01 04:52:28;;;;;;;19.17;14.23;;;11.40;99.90;;;;;;5002513;28;20509;-86
2022/06/01 04:54:54;;;;;;;16.80;13.48;;;15.00;99.90;;;;;;4974457;28;20041;-85
2022/06/01 04:57:23;;;;;;;16.90;12.88;;;11.40;99.90;;;;;;4973714;28;20077;-84
2022/06/01 04:59:49;;;;;;;19.35;13.70;;;11.50;99.90;;;;;;4970504;28;20285;-85
2022/06/01 05:02:15;;;;;;;18.48;14.07;;;;;;;;;;4984339;28;20046;-87
2022/06/01 05:04:44;;;;;;;19.95;14.05;;;11.50;99.90;;;;;;4971156;28;20053;-85
2022/06/01 05:07:13;;;;;;;19.15;14.32;;;;;;;;;;5004237;28;20455;-86
2022/06/01 05:09:42;;;;;;;18.52;13.75;;;11.60;99.90;;;;;;4966139;28;20050;-89
2022/06/01 05:12:10;;;;;;;17.83;13.57;;;11.70;99.90;;;;;;4986552;28;20045;-87
2022/06/01 05:14:39;;;;;;;17.48;13.82;;;11.70;99.90;;;;;;4979343;28;20089;-85
2022/06/01 05:17:05;;;;;;;18.45;14.05;;;11.70;99.90;;;;;;4983176;28;20532;-86
2022/06/01 05:19:33;;;;;;;21.95;14.25;;;11.70;99.90;;;;;;4982692;28;20421;-86
2022/06/01 05:21:59;;;;;;;18.27;14.32;;;11.80;99.90;;;;;;4969582;28;20061;-86
2022/06/01 05:24:25;;;;;;;17.98;14.25;;;11.80;99.90;;;;;;4985383;28;20034;-85
2022/06/01 05:26:51;;;;;;;18.50;14.25;;;11.80;99.90;;;;;;4985615;28;20401;-86
2022/06/01 05:29:17;;;;;;;19.42;14.38;;;11.80;99.90;;;;;;4968246;28;20350;-85
2022/06/01 05:31:44;;;;;;;18.95;14.52;;;11.90;99.90;;;;;;4966739;28;20046;-85
2022/06/01 05:34:10;;;;;;;16.77;13.25;;;11.80;99.90;;;;;;4982683;28;20153;-86
2022/06/01 05:36:39;;;;;;;18.05;13.30;;;11.80;99.90;;;;;;4968305;28;20195;-86
2022/06/01 05:39:04;;;;;;;19.63;14.40;;;11.80;99.90;;;;;;4981951;28;20034;-84
2022/06/01 05:41:30;;;;;;;18.23;13.30;;;11.80;99.90;;;;;;4994929;28;20452;-87
2022/06/01 05:43:56;;;;;;;17.33;13.18;;;11.30;99.90;;;;;;4984700;28;20043;-85
2022/06/01 05:46:23;;;;;;;19.90;14.65;;;11.80;99.90;;;;;;4968472;28;20054;-86
2022/06/01 05:48:52;;;;;;;16.98;13.73;;;11.80;99.90;;;;;;4984859;28;20469;-85
2022/06/01 05:51:21;;;;;;;17.13;13.85;;;12.00;99.90;;;;;;4979868;28;20401;-86
2022/06/01 05:53:50;;;;;;;18.40;14.60;;;;;;;;;;4967458;28;20030;-86
2022/06/01 05:56:21;;;;;;;17.55;13.55;;;12.10;99.90;;;;;;4969310;28;20046;-86
2022/06/01 05:58:48;;;;;;;18.20;13.90;;;10.80;99.90;;;;;;4966969;28;20117;-86
2022/06/01 06:01:16;;;;;;;16.90;13.63;;;12.20;99.90;;;;;;4979020;28;20068;-86
2022/06/01 06:03:43;;;;;;;18.25;13.82;;;;;;;;;;4968343;28;20034;-87
2022/06/01 06:06:11;;;;;;;15.68;12.73;;;12.30;99.90;;;;;;4968830;28;20043;-85
2022/06/01 06:08:52;;;;;;;17.13;13.15;;;12.30;99.90;;;;;;4967651;28;20053;-87
2022/06/01 06:11:19;;;;;;;16.92;13.60;;;12.30;99.90;;;;;;4983634;28;20144;-88
2022/06/01 06:13:51;;;;;;;18.05;13.35;;;12.40;99.90;;;;;;4964328;28;20070;-87
2022/06/01 06:16:18;;;;;;;16.80;12.90;;;12.40;99.90;;;;;;4982841;28;20137;-85
2022/06/01 06:18:45;;;;;;;16.20;13.43;;;12.40;99.90;;;;;;4974690;28;20109;-85
2022/06/01 06:21:11;;;;;;;16.35;12.48;;;12.50;99.90;;;;;;4982783;28;20052;-85
2022/06/01 06:23:57;;;;;;;16.20;12.98;;;12.60;99.90;;;;;;4985084;28;20040;-84
2022/06/01 06:26:26;;;;;;;17.33;12.82;;;12.70;99.90;;;;;;4967498;28;20046;-85
2022/06/01 06:28:52;;;;;;;18.70;13.50;;;12.60;99.90;;;;;;4961775;28;20061;-86
2022/06/01 06:31:21;;;;;;;17.15;13.10;;;12.60;99.90;;;;;;4985496;28;20077;-86
2022/06/01 06:33:49;;;;;;;19.67;13.80;;;;;;;;;;4979678;28;20046;-86
2022/06/01 06:36:15;;;;;;;17.90;13.38;;;12.70;99.90;;;;;;4965267;28;20501;-86
2022/06/01 06:38:42;;;;;;;17.63;13.90;;;12.80;99.90;;;;;;4965351;28;20189;-87
2022/06/01 06:41:10;;;;;;;16.52;13.80;;;12.70;99.90;;;;;;4964728;28;20121;-86
2022/06/01 06:43:39;;;;;;;16.98;13.95;;;12.80;99.90;;;;;;4985117;28;20377;-85
2022/06/01 06:46:15;;;;;;;16.88;12.95;;;12.90;99.90;;;;;;4982488;28;20042;-86
2022/06/01 06:48:42;;;;;;;19.10;14.23;;;13.00;99.90;;;;;;4983678;28;20509;-86
2022/06/01 06:51:09;;;;;;;16.30;12.98;;;13.10;99.90;;;;;;4981834;28;20078;-86
2022/06/01 06:53:35;;;;;;;17.10;13.02;;;13.00;99.90;;;;;;4966948;28;20038;-87
2022/06/01 06:56:01;;;;;;;17.13;13.18;;;13.10;99.90;;;;;;4985589;28;20038;-85
2022/06/01 06:58:29;;;;;;;15.95;12.73;;;13.10;99.90;;;;;;4966034;28;20510;-85
2022/06/01 07:00:55;;;;;;;15.02;11.35;;;13.10;99.90;;;;;;4963953;28;20042;-85
2022/06/01 07:03:20;;;;;;;16.63;11.30;;;13.20;99.90;;;;;;4985271;28;20043;-85
2022/06/01 07:08:34;;;;;;;14.43;10.80;;;13.30;99.90;;;;;;4983485;28;20082;-85
2022/06/01 07:11:00;;;;;;;13.27;10.10;;;13.50;99.90;;;;;;4964396;28;20051;-87
2022/06/01 07:13:32;;;;;;;14.43;10.57;;;13.50;99.90;;;;;;4967910;28;20454;-86
2022/06/01 07:16:08;;;;;;;13.37;8.90;;;13.60;99.90;;;;;;4984277;28;20405;-88
2022/06/01 07:18:35;;;;;;;10.93;6.85;;;13.70;99.90;;;;;;4963547;28;20310;-86
2022/06/01 07:21:04;;;;;;;7.70;3.63;;;;;;;;;;4962482;28;20042;-88
2022/06/01 07:23:34;;;;;;;7.75;2.97;;;13.60;99.90;;;;;;4982984;28;20159;-86
2022/06/01 07:26:01;;;;;;;7.32;3.15;;;13.60;99.90;;;;;;4987530;28;20422;-86
2022/06/01 07:28:29;;;;;;;8.02;3.38;;;11.00;99.90;;;;;;4969233;28;20030;-87
2022/06/01 07:30:58;;;;;;;8.35;3.70;;;13.40;99.90;;;;;;4954683;28;20172;-87
2022/06/01 07:33:28;;;;;;;8.43;3.97;;;13.40;99.90;;;;;;4971753;28;20045;-85
2022/06/01 07:35:55;;;;;;;8.70;4.10;;;13.30;99.90;;;;;;4986257;28;20556;-84
2022/06/01 07:43:54;;;;;;;9.73;4.55;;;12.80;99.90;;;;;;4987609;28;20104;-85
2022/06/01 07:46:20;;;;;;;8.23;4.13;;;12.70;99.90;;;;;;4987181;28;20411;-85
2022/06/01 07:48:46;;;;;;;10.70;4.78;;;12.70;99.90;;;;;;4979712;28;20054;-85
2022/06/01 07:51:13;;;;;;;9.80;5.40;;;12.70;99.90;;;;;;4987396;28;20477;-84
2022/06/01 07:53:39;;;;;;;11.38;5.32;;;12.80;99.90;;;;;;4985975;28;20126;-85
2022/06/01 07:56:05;;;;;;;8.80;4.78;;;12.90;99.90;;;;;;4988546;28;20125;-84
2022/06/01 07:58:31;;;;;;;9.00;4.80;;;13.00;99.90;;;;;;4971384;28;20038;-86
2022/06/01 08:00:57;;;;;;;10.38;5.35;;;13.10;99.90;;;;;;4986295;28;20030;-85
2022/06/01 08:03:26;;;;;;;9.88;5.25;;;11.90;99.90;;;;;;4985457;28;20583;-86
2022/06/01 08:05:52;;;;;;;10.00;5.65;;;14.30;99.90;;;;;;4986199;28;20481;-84
2022/06/01 08:08:20;;;;;;;10.52;5.90;;;13.30;99.90;;;;;;4984349;28;20093;-86
2022/06/01 08:10:52;;;;;;;9.93;5.30;;;13.50;99.90;;;;;;4988866;28;20070;-86
2022/06/01 08:13:18;;;;;;;10.00;4.80;;;13.80;99.90;;;;;;4969939;28;20150;-85
2022/06/01 08:15:49;;;;;;;8.30;4.35;;;13.80;99.90;;;;;;4993692;28;20057;-85
2022/06/01 08:18:18;;;;;;;7.85;3.70;;;14.20;99.90;;;;;;4962008;28;20050;-83
2022/06/01 08:20:45;;;;;;;6.80;3.00;;;;;;;;;;4981681;28;20034;-83
2022/06/01 08:23:14;;;;;;;7.60;3.45;;;14.40;99.90;;;;;;4984023;28;20069;-84
2022/06/01 08:25:44;;;;;;;9.90;4.60;;;14.60;99.90;;;;;;4987262;28;20939;-84
2022/06/01 08:28:11;;;;;;;8.40;3.63;;;14.70;99.90;;;;;;4970514;28;20030;-85
2022/06/01 08:30:40;;;;;;;8.20;3.92;;;12.70;99.90;;;;;;4970276;28;20533;-85
2022/06/01 08:33:06;;;;;;;8.55;4.47;;;14.70;99.90;;;;;;4979017;28;20046;-84
2022/06/01 08:35:38;;;;;;;8.80;4.82;;;14.80;99.90;;;;;;4988261;28;20038;-85
2022/06/01 08:38:05;;;;;;;9.60;5.40;;;14.90;99.90;;;;;;4999508;28;20489;-84
2022/06/01 08:41:04;;;;;;;10.77;5.60;;;15.00;99.90;;;;;;4985967;28;20069;-86
2022/06/01 08:43:59;;;;;;;10.57;4.95;;;15.30;99.90;;;;;;4967500;28;20061;-87
2022/06/01 08:46:26;;;;;;;8.68;4.53;;;15.60;99.90;;;;;;4989569;28;20058;-84
2022/06/01 08:49:17;;;;;;;8.65;4.40;;;15.60;99.90;;;;;;4984348;28;20085;-85
2022/06/01 08:51:45;;;;;;;9.40;5.07;;;15.90;99.90;;;;;;4984856;28;20481;-86
2022/06/01 08:54:11;;;;;;;8.95;4.90;;;16.10;99.90;;;;;;4968836;28;20470;-85
2022/06/01 08:56:51;;;;;;;8.13;4.15;;;16.30;99.90;;;;;;4987899;28;20576;-85
2022/06/01 08:59:32;;;;;;;8.13;4.30;;;16.50;99.90;;;;;;4966042;28;20043;-84
2022/06/01 09:02:35;;;;;;;9.57;4.25;;;16.70;99.90;;;;;;4959692;28;20038;-85
2022/06/01 09:05:21;;;;;;;8.40;3.95;;;16.80;99.90;;;;;;4964742;28;20067;-86
2022/06/01 09:08:04;;;;;;;9.18;3.85;;;16.60;99.90;;;;;;4966989;28;20054;-86
2022/06/01 09:10:46;;;;;;;8.30;3.70;;;16.40;99.90;;;;;;4961700;28;20047;-84
2022/06/01 09:13:19;;;;;;;8.85;3.50;;;16.20;99.90;;;;;;4970608;28;20097;-84
2022/06/01 09:15:53;;;;;;;8.02;3.30;;;15.90;99.90;;;;;;5002885;28;20046;-85
2022/06/01 09:18:28;;;;;;;8.02;3.70;;;15.90;99.90;;;;;;4972696;28;20129;-85
2022/06/01 09:23:42;;;;;;;7.22;3.35;;;15.80;99.90;;;;;;4988220;28;20208;-86
2022/06/01 09:26:21;;;;;;;7.43;3.10;;;15.70;99.90;;;;;;4967700;28;20038;-86
2022/06/01 09:28:54;;;;;;;8.32;3.60;;;15.80;99.90;;;;;;4989794;28;20049;-84
2022/06/01 09:31:36;;;;;;;7.88;3.63;;;15.80;99.90;;;;;;4972348;28;20212;-85
2022/06/01 09:34:32;;;;;;;7.97;3.92;;;16.50;99.90;;;;;;4971863;28;20118;-85
2022/06/01 09:37:06;;;;;;;9.27;4.28;;;15.80;99.90;;;;;;5005193;28;20121;-85
2022/06/01 09:39:33;;;;;;;8.55;4.88;;;16.10;99.90;;;;;;4989384;28;20074;-85
2022/06/01 09:42:25;;;;;;;9.98;5.85;;;16.30;99.90;;;;;;4971783;28;20038;-86
2022/06/01 09:44:52;;;;;;;10.82;5.50;;;16.80;99.90;;;;;;4998497;28;20066;-86
2022/06/01 09:47:37;;;;;;;10.80;5.00;;;17.10;99.90;;;;;;4974954;28;20046;-84
2022/06/01 09:50:18;;;;;;;8.70;4.40;;;16.10;99.90;;;;;;5004416;28;20085;-84
2022/06/01 09:52:45;;;;;;;9.30;4.57;;;17.20;99.90;;;;;;4986153;28;20571;-85
2022/06/01 09:55:15;;;;;;;8.52;4.60;;;17.00;99.90;;;;;;4987804;28;20048;-85
2022/06/01 09:57:42;;;;;;;9.57;4.97;;;16.80;99.90;;;;;;4987007;28;20046;-85
2022/06/01 10:06:18;;;;;;;8.68;4.75;;;16.00;99.90;;;;;;5006881;28;20130;-86
2022/06/01 10:09:05;;;;;;;10.15;5.43;;;15.90;99.90;;;;;;5001646;28;20527;-86
2022/06/01 10:11:45;;;;;;;10.93;5.53;;;15.80;99.90;;;;;;5004333;28;20038;-86
2022/06/01 10:14:19;;;;;;;9.73;4.88;;;15.60;99.90;;;;;;4982828;28;20050;-86
2022/06/01 10:16:45;;;;;;;9.00;4.40;;;15.60;99.90;;;;;;4978729;28;20061;-86
2022/06/01 10:19:23;;;;;;;9.10;4.53;;;15.20;99.90;;;;;;4981071;28;20035;-86
2022/06/01 10:22:11;;;;;;;9.57;4.20;;;15.30;99.90;;;;;;4967630;28;20044;-88
2022/06/01 10:24:54;;;;;;;8.90;3.97;;;15.40;99.90;;;;;;4981910;28;20038;-87
2022/06/01 10:27:24;;;;;;;9.20;4.10;;;15.60;99.90;;;;;;4980873;28;20050;-88
2022/06/01 10:30:24;;;;;;;8.48;4.40;;;15.90;99.90;;;;;;4979319;28;21288;-87
2022/06/01 10:33:33;;;;;;;8.90;4.60;;;16.50;99.90;;;;;;4961904;28;20050;-85
2022/06/01 10:36:16;;;;;;;8.27;3.72;;;16.70;99.90;;;;;;4971679;28;20525;-86
2022/06/01 10:39:28;;;;;;;20.02;6.13;;;17.00;99.90;;;;;;4976705;28;20053;-86
2022/06/01 10:45:20;;;;;;;8.63;3.80;;;16.60;99.90;;;;;;4943131;28;20046;-87
2022/06/01 10:47:56;;;;;;;8.05;3.92;;;16.60;99.90;;;;;;4950307;28;20042;-87
2022/06/01 10:50:38;;;;;;;8.02;3.65;;;17.40;99.90;;;;;;4984739;28;20031;-87
2022/06/01 10:53:26;;;;;;;8.88;3.60;;;16.10;99.90;;;;;;4968364;28;20461;-86
2022/06/01 10:55:55;;;;;;;7.82;3.10;;;16.10;99.90;;;;;;4983409;28;20406;-86
2022/06/01 10:58:25;;;;;;;8.50;3.55;;;16.00;99.90;;;;;;4978775;28;20109;-86
2022/06/01 11:01:00;;;;;;;7.85;3.53;;;16.10;99.90;;;;;;4987602;28;20047;-87
2022/06/01 11:03:48;;;;;;;7.78;3.63;;;16.00;99.90;;;;;;5004724;28;20587;-84
2022/06/01 11:06:16;;;;;;;9.43;4.32;;;17.20;99.90;;;;;;4979973;28;20382;-86
2022/06/01 11:08:57;;;;;;;8.45;3.58;;;;;;;;;;4985520;28;20534;-86
2022/06/01 11:11:29;;;;;;;6.75;2.95;;;16.30;99.90;;;;;;4985110;28;20400;-85
2022/06/01 11:14:24;;;;;;;7.55;3.42;;;16.20;99.90;;;;;;4987169;28;20066;-85
2022/06/01 11:17:21;;;;;;;8.27;3.30;;;16.20;99.90;;;;;;4985375;28;20105;-88
2022/06/01 11:20:11;;;;;;;8.00;3.60;;;16.00;99.90;;;;;;4987934;28;20105;-86
2022/06/01 11:23:14;;;;;;;8.23;3.63;;;16.00;99.90;;;;;;4986324;28;20084;-87
2022/06/01 11:25:49;;;;;;;8.90;3.30;;;15.90;99.90;;;;;;4985507;28;20042;-86
2022/06/01 11:29:06;;;;;;;5.75;2.40;;;15.80;99.90;;;;;;4984176;28;20125;-86
2022/06/01 11:31:36;;;;;;;4.95;2.08;;;15.60;99.90;;;;;;4928746;29;20039;-86
2022/06/01 11:34:07;;;;;;;;;;;15.40;99.90;;;;;;4877362;29;20162;-87
2022/06/01 11:37:09;;;;;;;5.78;2.20;;;15.20;99.90;;;;;;4962219;28;19926;-86
2022/06/01 11:39:50;;;;;;;4.88;2.00;;;15.10;99.90;;;;;;4997067;28;20038;-87
2022/06/01 11:42:28;;;;;;;4.28;1.98;;;15.00;99.90;;;;;;4984985;28;20508;-86
2022/06/01 11:45:10;;;;;;;5.60;2.00;;;15.00;99.90;;;;;;4970827;28;20038;-85
2022/06/01 11:47:51;;;;;;;4.20;1.90;;;15.10;99.90;;;;;;4985482;28;20046;-85
2022/06/01 11:51:03;;;;;;;7.28;2.20;;;15.20;99.90;;;;;;4986969;28;20050;-86
2022/06/01 11:53:34;;;;;;;6.88;2.30;;;15.10;99.90;;;;;;4988410;28;20053;-85
2022/06/01 11:56:30;;;;;;;5.60;2.13;;;15.00;99.90;;;;;;4965172;28;20042;-84
2022/06/01 11:59:04;;;;;;;6.72;2.22;;;14.80;99.90;;;;;;4942155;28;20050;-85
2022/06/01 12:01:43;;;;;;;7.28;2.40;;;14.90;99.90;;;;;;4985334;28;20095;-83
2022/06/01 12:04:19;;;;;;;6.03;2.22;;;15.00;99.90;;;;;;4983649;28;20501;-85
2022/06/01 12:07:11;;;;;;;6.25;2.30;;;15.20;99.90;;;;;;4978105;28;20042;-86
2022/06/01 12:09:40;;;;;;;5.25;2.30;;;15.40;99.90;;;;;;4984222;28;20050;-83
2022/06/01 12:12:21;;;;;;;6.07;2.20;;;15.90;99.90;;;;;;4981625;28;20466;-85
2022/06/01 12:15:32;;;;;;;6.00;2.20;;;16.00;99.90;;;;;;4972282;28;20059;-85
2022/06/01 12:18:16;;;;;;;5.63;1.98;;;16.30;99.90;;;;;;4996568;28;20082;-84
2022/06/01 12:20:49;;;;;;;6.03;2.00;;;16.60;99.90;;;;;;4984828;28;20493;-84
2022/06/01 12:28:56;;;;;;;6.32;2.42;;;16.50;99.90;;;;;;4985738;28;20046;-86
2022/06/01 12:31:30;;;;;;;5.57;1.90;;;16.80;99.90;;;;;;4962786;28;20500;-85
2022/06/01 12:34:20;;;;;;;5.60;1.90;;;15.70;99.90;;;;;;5002505;28;20486;-86
2022/06/01 12:37:07;;;;;;;5.38;2.30;;;16.80;99.90;;;;;;4983170;28;20045;-85
2022/06/01 12:39:41;;;;;;;5.63;1.90;;;16.50;99.90;;;;;;4995223;28;20047;-86
2022/06/01 12:42:19;;;;;;;5.57;2.10;;;16.40;99.90;;;;;;4962192;28;20531;-85
2022/06/01 12:44:52;;;;;;;5.82;2.00;;;16.50;99.90;;;;;;4970948;28;20056;-86
2022/06/01 12:47:32;;;;;;;4.47;1.88;;;16.60;99.90;;;;;;4981775;28;20137;-86
2022/06/01 12:50:09;;;;;;;5.55;2.22;;;16.90;99.90;;;;;;4965562;28;20082;-85
2022/06/01 12:52:35;;;;;;;5.95;2.10;;;17.20;99.90;;;;;;4966409;28;20057;-85
2022/06/01 12:55:12;;;;;;;4.28;1.90;;;17.10;99.90;;;;;;4981504;28;20055;-85
2022/06/01 12:57:49;;;;;;;4.47;1.90;;;16.90;99.90;;;;;;4988765;28;20523;-86
2022/06/01 13:00:31;;;;;;;4.75;2.00;;;17.10;99.90;;;;;;4983263;28;20605;-86
2022/06/01 13:02:59;;;;;;;4.72;1.95;;;17.00;99.90;;;;;;4962645;28;20404;-85
2022/06/01 13:05:36;;;;;;;6.50;2.30;;;16.90;99.90;;;;;;4982834;28;20225;-85
2022/06/01 13:08:04;;;;;;;4.95;2.10;;;16.80;99.90;;;;;;4978663;28;20042;-85
2022/06/01 13:10:33;;;;;;;5.63;2.03;;;16.60;99.90;;;;;;4969774;28;20050;-86
2022/06/01 13:13:20;;;;;;;6.20;2.13;;;16.60;99.90;;;;;;4982075;28;20405;-86
2022/06/01 13:15:56;;;;;;;6.40;2.50;;;16.40;99.90;;;;;;4984461;28;20350;-84
2022/06/01 13:18:44;;;;;;;8.15;2.67;;;16.30;99.90;;;;;;4978531;28;20054;-84
2022/06/01 13:21:10;;;;;;;5.57;2.22;;;16.20;99.90;;;;;;4982489;28;20126;-86
2022/06/01 13:24:11;;;;;;;5.20;1.90;;;16.20;99.90;;;;;;4983551;28;20126;-86
2022/06/01 13:26:54;;;;;;;4.70;1.80;;;15.90;99.90;;;;;;4949053;28;20058;-87
2022/06/01 13:29:29;;;;;;;4.85;1.80;;;15.60;99.90;;;;;;4965208;28;20058;-86
2022/06/01 13:32:06;;;;;;;6.18;1.90;;;15.40;99.90;;;;;;4983131;28;20134;-86
2022/06/01 13:34:52;;;;;;;4.72;1.77;;;15.20;99.90;;;;;;4964876;28;20104;-86
2022/06/01 13:37:24;;;;;;;3.80;1.65;;;15.00;99.90;;;;;;4977788;28;20100;-85
2022/06/01 13:40:04;;;;;;;5.37;2.13;;;14.90;99.90;;;;;;4969787;28;20536;-86
2022/06/01 13:42:38;;;;;;;4.90;2.00;;;15.80;99.90;;;;;;4970435;28;20654;-87
2022/06/01 13:45:04;;;;;;;6.15;2.20;;;12.50;99.90;;;;;;4979842;28;20096;-86
2022/06/01 13:47:52;;;;;;;7.55;2.60;;;14.50;99.90;;;;;;4983204;28;20497;-86